Time;durP1;ratioP1;P1;durP2;ratioP2;P2;SDS_P1;SDS_P2;PMS_P1;PMS_P2;Temp;Humidity;BMP_temperature;BMP_pressure;BME280_temperature;BME280_humidity;BME280_pressure;Samples;Min_cycle;Max_cycle;Signal;HPM_P1;HPM_P2
2022/11/26 00:00:54;;;;;;;;;35.50;31.25;;;;;11.01;69.49;102427.53;4857670;29;46036;-66
2022/11/26 00:03:20;;;;;;;;;39.00;32.50;;;;;11.01;69.49;102436.47;4862691;29;45436;-66
2022/11/26 00:05:49;;;;;;;;;36.25;32.00;;;;;10.97;69.53;102441.84;4865312;29;45543;-66
2022/11/26 00:08:34;;;;;;;;;42.25;32.25;;;;;10.93;69.75;102431.16;4866410;29;45340;-66
2022/11/26 00:11:00;;;;;;;;;32.50;28.00;;;;;10.96;69.67;102440.97;4866202;29;45386;-65
2022/11/26 00:13:28;;;;;;;;;32.25;30.00;;;;;10.95;69.67;102447.19;4864827;29;45512;-66
2022/11/26 00:15:54;;;;;;;;;29.50;25.75;;;;;10.90;69.88;102443.66;4866572;29;45261;-66
2022/11/26 00:18:22;;;;;;;;;29.25;26.75;;;;;10.92;69.92;102455.22;4866077;29;45449;-66
2022/11/26 00:20:52;;;;;;;;;28.25;27.00;;;;;10.90;70.03;102451.69;4865804;29;45460;-66
2022/11/26 00:23:20;;;;;;;;;24.25;19.25;;;;;10.90;70.15;102454.34;4864822;29;45869;-65
2022/11/26 00:25:49;;;;;;;;;26.25;21.75;;;;;10.87;69.93;102457.91;4866099;29;45448;-65
2022/11/26 00:28:36;;;;;;;;;26.00;21.75;;;;;10.85;70.04;102462.38;4866519;29;45429;-65
2022/11/26 00:31:12;;;;;;;;;24.50;19.50;;;;;10.86;70.08;102466.84;4866111;29;46153;-66
2022/11/26 00:33:38;;;;;;;;;23.50;20.75;;;;;10.85;70.13;102470.41;4863780;29;45312;-65
2022/11/26 00:36:24;;;;;;;;;22.25;17.00;;;;;10.84;69.88;102460.63;4865468;29;45801;-65
2022/11/26 00:38:56;;;;;;;;;20.25;19.00;;;;;10.81;69.95;102449.06;4865326;29;45733;-66
2022/11/26 00:41:24;;;;;;;;;20.50;20.25;;;;;10.83;69.84;102455.31;4864164;29;46222;-66
2022/11/26 00:43:49;;;;;;;;;26.50;21.25;;;;;10.85;69.98;102450.81;4866049;29;45705;-66
2022/11/26 00:46:18;;;;;;;;;24.50;21.50;;;;;10.82;69.82;102456.19;4866156;29;45448;-66
2022/11/26 00:48:43;;;;;;;;;24.75;19.50;;;;;10.84;69.85;102465.06;4866004;29;45389;-66
2022/11/26 00:51:21;;;;;;;;;28.00;23.00;;;;;10.81;70.06;102465.09;4865707;29;51251;-66
2022/11/26 00:53:47;;;;;;;;;23.25;18.25;;;;;10.82;69.90;102467.75;4865631;29;45686;-66
2022/11/26 00:56:19;;;;;;;;;20.50;20.25;;;;;10.80;70.08;102464.19;4866088;29;45555;-65
2022/11/26 00:58:46;;;;;;;;;23.25;22.50;;;;;10.79;70.15;102456.19;4854570;29;45245;-66
2022/11/26 01:01:15;;;;;;;;;29.25;25.25;;;;;10.73;69.95;102458.00;4854359;29;45415;-66
2022/11/26 01:03:41;;;;;;;;;23.50;21.75;;;;;10.73;69.91;102460.69;4865072;29;45378;-65
2022/11/26 01:06:17;;;;;;;;;22.75;20.00;;;;;10.74;69.87;102465.13;4864173;29;45544;-66
2022/11/26 01:08:43;;;;;;;;;23.50;19.50;;;;;10.74;69.77;102466.91;4863398;29;46459;-66
2022/11/26 01:11:12;;;;;;;;;23.00;20.25;;;;;10.65;70.03;102454.50;4865241;29;46108;-66
2022/11/26 01:13:37;;;;;;;;;27.00;24.75;;;;;10.70;69.87;102466.03;4865635;29;45564;-66
2022/11/26 01:16:15;;;;;;;;;26.00;25.25;;;;;10.74;69.96;102481.16;4862605;29;45362;-66
2022/11/26 01:18:40;;;;;;;;;25.00;24.75;;;;;10.71;69.97;102473.16;4865711;29;45438;-66
2022/11/26 01:21:09;;;;;;;;;33.75;30.00;;;;;10.73;69.95;102474.03;4865261;29;45569;-66
2022/11/26 01:23:34;;;;;;;;;33.25;26.75;;;;;10.63;70.04;102460.75;4865152;29;45337;-66
2022/11/26 01:26:00;;;;;;;;;30.00;28.50;;;;;10.69;69.73;102480.31;4848623;29;45485;-66
2022/11/26 01:28:25;;;;;;;;;34.50;29.75;;;;;10.69;69.65;102466.94;4865587;29;45329;-66
2022/11/26 01:30:50;;;;;;;;;29.25;25.00;;;;;10.69;69.71;102477.63;4848079;29;55838;-66
2022/11/26 01:33:15;;;;;;;;;28.75;25.50;;;;;10.70;70.19;102473.16;4865547;29;45504;-66
2022/11/26 01:35:41;;;;;;;;;27.25;21.75;;;;;10.70;70.07;102474.03;4861926;29;45363;-66
2022/11/26 01:38:11;;;;;;;;;21.50;20.75;;;;;10.65;69.84;102466.97;4864704;29;45484;-66
2022/11/26 01:40:39;;;;;;;;;19.50;16.50;;;;;10.68;70.02;102473.16;4864864;29;45570;-66
2022/11/26 01:43:10;;;;;;;;;27.25;24.50;;;;;10.67;69.99;102474.06;4865051;29;45540;-66
2022/11/26 01:45:35;;;;;;;;;22.00;18.75;;;;;10.65;69.43;102474.97;4865374;29;45459;-66
2022/11/26 01:48:00;;;;;;;;;25.25;20.50;;;;;10.62;69.71;102464.31;4865028;29;45306;-66
2022/11/26 01:50:32;;;;;;;;;26.50;21.75;;;;;10.63;69.59;102466.09;4864981;29;46096;-66
2022/11/26 01:53:08;;;;;;;;;23.75;22.50;;;;;10.61;69.89;102466.09;4864752;29;45441;-66
2022/11/26 01:55:53;;;;;;;;;28.00;26.00;;;;;10.54;69.98;102462.56;4853425;29;45399;-66
2022/11/26 01:58:26;;;;;;;;;22.25;20.25;;;;;10.57;69.91;102469.66;4865126;29;45321;-66
2022/11/26 02:00:51;;;;;;;;;24.00;23.00;;;;;10.59;69.98;102475.88;4855642;29;46090;-65
2022/11/26 02:03:18;;;;;;;;;25.00;20.75;;;;;10.56;69.94;102475.91;4861399;29;45536;-66
2022/11/26 02:05:54;;;;;;;;;30.25;26.00;;;;;10.55;70.14;102474.13;4863741;29;45456;-66
2022/11/26 02:08:20;;;;;;;;;24.50;24.25;;;;;10.52;69.93;102461.69;4864686;29;45487;-66
2022/11/26 02:10:45;;;;;;;;;29.00;21.00;;;;;10.55;69.61;102468.78;4864467;29;46947;-66
2022/11/26 02:13:11;;;;;;;;;25.25;23.00;;;;;10.55;70.14;102468.78;4847043;29;45436;-66
2022/11/26 02:15:57;;;;;;;;;27.50;23.00;;;;;10.52;69.86;102467.03;4864914;29;45546;-66
2022/11/26 02:18:30;;;;;;;;;19.25;18.25;;;;;10.49;69.95;102463.47;4853334;29;45413;-66
2022/11/26 02:21:06;;;;;;;;;19.25;19.25;;;;;10.50;69.88;102467.91;4864640;29;46372;-66
2022/11/26 02:24:17;;;;;;;;;27.75;23.75;;;;;10.48;69.57;102467.06;4862793;29;45391;-66
2022/11/26 02:26:42;;;;;;;;;25.50;22.00;;;;;10.48;70.18;102465.25;4825979;29;45347;-66
2022/11/26 02:29:27;;;;;;;;;23.75;22.00;;;;;10.48;70.00;102472.38;4862567;29;45748;-65
2022/11/26 02:32:07;;;;;;;;;25.00;21.50;;;;;10.46;69.81;102461.72;4863529;29;45407;-66
2022/11/26 02:34:55;;;;;;;;;21.75;18.50;;;;;10.42;70.42;102451.94;4854917;29;45503;-66
2022/11/26 02:37:28;;;;;;;;;10.50;8.00;;;;;10.42;69.61;102446.59;4864596;29;45467;-66
2022/11/26 02:39:55;;;;;;;;;18.25;16.25;;;;;10.43;70.35;102453.72;4846640;29;45605;-66
2022/11/26 02:42:27;;;;;;;;;22.75;17.50;;;;;10.44;69.74;102459.94;4864057;29;45488;-66
2022/11/26 02:44:56;;;;;;;;;19.75;17.00;;;;;10.44;69.70;102470.59;4864323;29;45685;-65
2022/11/26 02:47:25;;;;;;;;;18.00;16.50;;;;;10.45;70.08;102465.25;4864620;29;45357;-66
2022/11/26 02:49:54;;;;;;;;;19.00;17.50;;;;;10.44;69.66;102459.94;4863631;29;45451;-66
2022/11/26 02:52:21;;;;;;;;;24.50;18.00;;;;;10.41;69.84;102467.94;4864216;29;46256;-66
2022/11/26 02:54:48;;;;;;;;;17.75;15.75;;;;;10.33;69.31;102460.00;4864054;29;45414;-65
2022/11/26 02:57:17;;;;;;;;;23.50;17.50;;;;;10.40;69.78;102463.53;4864545;29;45338;-66
2022/11/26 02:59:43;;;;;;;;;26.00;22.75;;;;;10.40;69.42;102475.06;4863272;29;45393;-66
2022/11/26 03:02:14;;;;;;;;;19.75;16.75;;;;;10.37;69.50;102470.66;4855811;29;45557;-65
2022/11/26 03:04:45;;;;;;;;;17.25;17.25;;;;;10.34;69.65;102469.75;4864069;29;45488;-66
2022/11/26 03:07:13;;;;;;;;;19.50;17.00;;;;;10.36;69.68;102474.22;4866410;29;45520;-66
2022/11/26 03:09:50;;;;;;;;;19.75;19.50;;;;;10.32;69.79;102475.13;4866652;29;45324;-66
2022/11/26 03:12:15;;;;;;;;;25.25;22.25;;;;;10.30;69.70;102466.19;4867412;29;46140;-66
2022/11/26 03:14:41;;;;;;;;;21.25;19.50;;;;;10.27;70.20;102462.63;4867297;29;45404;-66
2022/11/26 03:17:06;;;;;;;;;22.50;20.25;;;;;10.29;69.77;102467.09;4867361;29;45465;-65
2022/11/26 03:19:31;;;;;;;;;19.75;18.25;;;;;10.27;70.11;102458.19;4866702;29;45536;-65
2022/11/26 03:21:57;;;;;;;;;20.75;19.00;;;;;10.22;70.01;102462.66;4866462;29;57416;-66
2022/11/26 03:24:22;;;;;;;;;24.25;20.00;;;;;10.29;70.17;102474.19;4866877;29;45435;-66
2022/11/26 03:26:47;;;;;;;;;22.50;18.00;;;;;10.30;69.81;102478.66;4867418;29;45396;-66
2022/11/26 03:29:13;;;;;;;;;18.50;17.50;;;;;10.27;69.55;102475.97;4866621;29;45513;-66
2022/11/26 03:31:38;;;;;;;;;18.00;17.50;;;;;10.28;69.88;102470.66;4865276;29;49264;-66
2022/11/26 03:34:03;;;;;;;;;16.00;14.00;;;;;10.28;69.77;102475.09;4866429;29;45560;-66
2022/11/26 03:36:28;;;;;;;;;22.50;19.75;;;;;10.18;69.89;102459.09;4850176;29;45402;-66
2022/11/26 03:38:54;;;;;;;;;20.50;16.75;;;;;10.23;69.53;102469.78;4866368;29;51394;-66
2022/11/26 03:41:19;;;;;;;;;25.00;23.25;;;;;10.24;69.67;102474.22;4846638;29;61051;-66
2022/11/26 03:43:44;;;;;;;;;23.25;21.75;;;;;10.19;69.52;102465.34;4864374;29;45312;-66
2022/11/26 03:46:10;;;;;;;;;26.25;23.50;;;;;10.19;69.92;102465.34;4867069;29;45340;-66
2022/11/26 03:48:35;;;;;;;;;19.25;17.25;;;;;10.14;69.74;102469.78;4866883;29;45519;-66
2022/11/26 03:51:00;;;;;;;;;25.75;21.50;;;;;10.11;69.96;102462.69;4866838;29;46244;-66
2022/11/26 03:53:25;;;;;;;;;22.50;22.00;;;;;10.19;69.85;102474.22;4866295;29;46130;-65
2022/11/26 03:55:51;;;;;;;;;25.25;21.25;;;;;10.18;69.51;102479.56;4866862;29;45314;-66
2022/11/26 03:58:16;;;;;;;;;19.75;18.00;;;;;10.16;69.08;102474.25;4849686;29;49455;-65
2022/11/26 04:00:41;;;;;;;;;22.00;18.00;;;;;10.11;68.93;102476.03;4862271;29;45363;-66
2022/11/26 04:03:07;;;;;;;;;27.75;25.25;;;;;10.10;69.67;102474.25;4865770;29;45392;-65
2022/11/26 04:05:32;;;;;;;;;24.00;22.00;;;;;10.13;69.38;102482.25;4866567;29;45339;-66
2022/11/26 04:07:57;;;;;;;;;29.25;26.25;;;;;10.12;69.58;102485.84;4866553;29;45431;-66
2022/11/26 04:10:23;;;;;;;;;30.25;24.25;;;;;10.05;69.82;102477.84;4865472;29;51438;-66
2022/11/26 04:12:48;;;;;;;;;31.50;25.50;;;;;10.07;69.31;102484.03;4851924;29;45258;-66
2022/11/26 04:15:14;;;;;;;;;29.00;24.00;;;;;10.02;69.42;102481.38;4866273;29;45285;-66
2022/11/26 04:17:39;;;;;;;;;34.50;28.00;;;;;10.04;69.46;102498.31;4865889;29;45430;-66
2022/11/26 04:20:05;;;;;;;;;30.75;23.75;;;;;10.01;69.85;102493.84;4866241;29;53700;-66
2022/11/26 04:22:30;;;;;;;;;28.50;25.75;;;;;10.05;69.39;102496.50;4866210;29;45410;-66
2022/11/26 04:24:56;;;;;;;;;22.50;18.75;;;;;9.96;69.65;102468.97;4866325;29;45296;-66
2022/11/26 04:27:21;;;;;;;;;26.50;22.50;;;;;10.04;69.28;102479.63;4866498;29;45412;-66
2022/11/26 04:29:46;;;;;;;;;29.50;25.75;;;;;10.02;69.29;102474.28;4865997;29;45642;-66
2022/11/26 04:32:11;;;;;;;;;24.50;22.25;;;;;9.95;69.24;102464.50;4865247;29;45441;-66
2022/11/26 04:34:37;;;;;;;;;27.00;22.75;;;;;9.99;69.93;102474.28;4863359;29;45457;-65
2022/11/26 04:37:02;;;;;;;;;25.50;23.00;;;;;10.02;69.28;102476.97;4866083;29;45467;-66
2022/11/26 04:39:27;;;;;;;;;26.75;23.00;;;;;9.99;69.69;102473.41;4865689;29;45470;-66
2022/11/26 04:41:53;;;;;;;;;27.25;25.00;;;;;9.94;69.84;102476.09;4865927;29;45399;-66
2022/11/26 04:44:18;;;;;;;;;28.50;24.75;;;;;9.97;69.13;102483.19;4865633;29;45419;-66
2022/11/26 04:46:43;;;;;;;;;28.75;25.25;;;;;9.96;69.56;102478.75;4865959;29;48990;-66
2022/11/26 04:49:09;;;;;;;;;25.50;25.50;;;;;9.98;69.23;102492.97;4866027;29;45673;-66
2022/11/26 04:51:34;;;;;;;;;33.75;30.75;;;;;9.93;69.61;102478.75;4865787;29;45374;-65
2022/11/26 04:53:59;;;;;;;;;30.00;27.00;;;;;9.93;69.39;102481.41;4865871;29;45303;-65
2022/11/26 04:56:24;;;;;;;;;31.00;30.00;;;;;9.95;69.56;102483.19;4865960;29;45381;-66
2022/11/26 04:58:50;;;;;;;;;28.25;28.25;;;;;9.90;69.98;102474.28;4866025;29;45385;-66
2022/11/26 05:01:15;;;;;;;;;31.25;29.00;;;;;9.99;70.07;102489.41;4856022;29;45434;-65
2022/11/26 05:03:41;;;;;;;;;29.50;25.75;;;;;10.00;70.11;102496.50;4865017;29;45540;-66
2022/11/26 05:06:07;;;;;;;;;25.50;22.50;;;;;10.01;69.80;102501.84;4865658;29;45575;-66
2022/11/26 05:08:32;;;;;;;;;28.50;26.50;;;;;9.94;69.93;102493.84;4865393;29;46122;-65
2022/11/26 05:10:59;;;;;;;;;28.75;27.75;;;;;9.98;70.00;102503.63;4864892;29;45499;-66
2022/11/26 05:13:25;;;;;;;;;28.75;26.25;;;;;9.95;69.81;102504.50;4857335;29;45419;-66
2022/11/26 05:15:50;;;;;;;;;28.00;24.25;;;;;9.88;70.03;102486.75;4865383;29;45397;-66
2022/11/26 05:18:16;;;;;;;;;28.00;23.75;;;;;9.97;69.66;102504.50;4865847;29;45427;-66
2022/11/26 05:20:41;;;;;;;;;26.75;23.25;;;;;10.00;70.11;102515.19;4865373;29;45416;-66
2022/11/26 05:23:07;;;;;;;;;30.75;27.50;;;;;10.01;69.52;102512.53;4865385;29;45370;-66
2022/11/26 05:25:32;;;;;;;;;23.50;22.50;;;;;9.97;69.86;102509.84;4865239;29;45632;-66
2022/11/26 05:27:57;;;;;;;;;35.50;29.75;;;;;9.97;69.97;102509.84;4864953;29;46339;-66
2022/11/26 05:30:23;;;;;;;;;31.50;28.75;;;;;10.00;69.92;102526.75;4865188;29;45488;-66
2022/11/26 05:32:48;;;;;;;;;30.50;29.50;;;;;9.96;69.38;102518.78;4864715;29;45324;-66
2022/11/26 05:35:13;;;;;;;;;28.75;26.00;;;;;10.00;69.97;102529.41;4863277;29;45369;-66
2022/11/26 05:37:38;;;;;;;;;28.00;26.25;;;;;10.01;69.75;102533.00;4865275;29;45407;-66
2022/11/26 05:40:05;;;;;;;;;29.75;29.75;;;;;9.98;70.01;102522.31;4864533;29;47358;-66
2022/11/26 05:42:30;;;;;;;;;34.25;27.50;;;;;10.00;69.60;102520.53;4848646;29;45371;-66
2022/11/26 05:44:56;;;;;;;;;30.00;24.00;;;;;9.95;69.62;102509.84;4865296;29;45329;-66
2022/11/26 05:47:21;;;;;;;;;28.75;24.25;;;;;9.95;69.75;102508.97;4865164;29;45268;-66
2022/11/26 05:49:46;;;;;;;;;27.75;26.75;;;;;9.94;69.68;102520.53;4865245;29;45266;-66
2022/11/26 05:52:12;;;;;;;;;26.00;22.75;;;;;9.98;69.35;102533.88;4864783;29;50551;-66
2022/11/26 05:54:37;;;;;;;;;34.00;28.00;;;;;9.96;69.67;102527.66;4864922;29;45306;-66
2022/11/26 05:57:02;;;;;;;;;31.50;29.75;;;;;9.99;69.17;102532.09;4865067;29;46214;-66
2022/11/26 05:59:28;;;;;;;;;24.50;24.50;;;;;9.94;69.02;102533.88;4864684;29;45322;-66
2022/11/26 06:01:53;;;;;;;;;29.25;27.25;;;;;9.91;69.40;102533.88;4856987;29;45246;-66
2022/11/26 06:04:18;;;;;;;;;27.50;23.00;;;;;9.97;69.65;102545.44;4865082;29;46982;-66
2022/11/26 06:06:44;;;;;;;;;25.00;18.25;;;;;9.93;69.45;102542.78;4864392;29;46121;-66
2022/11/26 06:09:09;;;;;;;;;30.25;28.50;;;;;9.95;69.14;102544.53;4864479;29;45723;-66
2022/11/26 06:11:34;;;;;;;;;31.00;29.50;;;;;9.95;69.71;102555.19;4864986;29;45576;-66
2022/11/26 06:14:00;;;;;;;;;25.50;24.00;;;;;9.97;69.16;102565.88;4864674;29;45548;-66
2022/11/26 06:16:25;;;;;;;;;30.25;25.25;;;;;9.96;69.18;102575.66;4864611;29;45922;-66
2022/11/26 06:18:50;;;;;;;;;28.75;27.25;;;;;9.93;69.78;102570.34;4864881;29;45422;-66
2022/11/26 06:21:16;;;;;;;;;28.25;25.25;;;;;9.90;69.59;102575.66;4864548;29;45376;-66
2022/11/26 06:23:41;;;;;;;;;34.00;28.00;;;;;9.93;69.70;102585.47;4852171;29;45671;-66
2022/11/26 06:26:11;;;;;;;;;36.75;31.25;;;;;9.90;69.00;102591.66;4864551;29;45450;-66
2022/11/26 06:28:37;;;;;;;;;33.75;30.50;;;;;9.81;69.05;102576.56;4864807;29;45667;-66
2022/11/26 06:31:03;;;;;;;;;34.50;31.25;;;;;9.80;69.59;102565.88;4860924;29;45261;-66
2022/11/26 06:33:28;;;;;;;;;27.75;23.00;;;;;9.78;69.14;102552.53;4863661;29;45306;-66
2022/11/26 06:35:59;;;;;;;;;29.00;25.50;;;;;9.82;69.86;102565.00;4864294;29;45320;-66
2022/11/26 06:38:24;;;;;;;;;27.75;24.50;;;;;9.82;69.45;102562.34;4855983;29;45409;-66
2022/11/26 06:40:59;;;;;;;;;29.75;25.00;;;;;9.83;69.43;102573.91;4866664;29;45389;-66
2022/11/26 06:43:25;;;;;;;;;25.25;23.00;;;;;9.85;69.44;102576.56;4867801;29;45407;-66
2022/11/26 06:45:50;;;;;;;;;27.50;26.00;;;;;9.79;69.81;102559.69;4867416;29;52660;-66
2022/11/26 06:48:15;;;;;;;;;28.50;23.50;;;;;9.84;69.62;102578.34;4867308;29;55071;-66
2022/11/26 06:50:40;;;;;;;;;22.25;21.00;;;;;9.88;69.65;102577.44;4867892;29;45380;-66
2022/11/26 06:53:06;;;;;;;;;25.00;21.00;;;;;9.89;70.13;102586.31;4867423;29;45423;-66
2022/11/26 06:55:31;;;;;;;;;27.50;22.25;;;;;9.88;69.72;102597.91;4866761;29;46685;-71
2022/11/26 06:57:56;;;;;;;;;16.25;15.25;;;;;9.85;70.01;102609.44;4850037;29;45342;-68
2022/11/26 07:00:22;;;;;;;;;31.25;28.75;;;;;9.86;69.97;102613.03;4863563;29;45468;-70
2022/11/26 07:02:47;;;;;;;;;28.50;24.75;;;;;9.82;69.48;102602.34;4847178;29;45665;-68
2022/11/26 07:05:12;;;;;;;;;26.25;26.00;;;;;9.78;69.51;102600.56;4849143;29;48256;-67
2022/11/26 07:07:38;;;;;;;;;24.00;23.75;;;;;9.77;70.02;102588.13;4867113;29;45281;-68
2022/11/26 07:10:04;;;;;;;;;34.50;25.75;;;;;9.79;69.70;102585.47;4850199;29;45499;-67
2022/11/26 07:12:30;;;;;;;;;25.00;24.50;;;;;9.77;69.77;102579.22;4867332;29;45523;-68
2022/11/26 07:14:55;;;;;;;;;30.00;26.25;;;;;9.84;70.21;102586.34;4866139;29;45431;-68
2022/11/26 07:17:20;;;;;;;;;28.75;23.50;;;;;9.76;69.55;102575.66;4866255;29;45413;-67
2022/11/26 07:19:46;;;;;;;;;23.25;22.75;;;;;9.83;70.33;102595.22;4867163;29;45380;-67
2022/11/26 07:22:11;;;;;;;;;22.75;22.50;;;;;9.82;70.21;102599.69;4866961;29;45656;-67
2022/11/26 07:24:36;;;;;;;;;28.00;23.50;;;;;9.74;70.00;102600.53;4865594;29;46340;-67
2022/11/26 07:27:02;;;;;;;;;28.50;24.25;;;;;9.69;69.77;102600.56;4866250;29;47693;-67
2022/11/26 07:29:27;;;;;;;;;28.50;25.75;;;;;9.73;70.24;102596.13;4865633;29;45406;-67
2022/11/26 07:31:52;;;;;;;;;21.50;19.75;;;;;9.77;70.05;102613.88;4849499;29;45385;-67
2022/11/26 07:34:18;;;;;;;;;23.75;23.75;;;;;9.81;70.52;102621.03;4866747;29;45408;-67
2022/11/26 07:36:44;;;;;;;;;29.25;23.75;;;;;9.77;70.08;102604.13;4847063;29;45438;-67
2022/11/26 07:39:10;;;;;;;;;22.00;21.75;;;;;9.85;70.15;102617.44;4849505;29;45471;-67
2022/11/26 07:41:36;;;;;;;;;22.00;21.25;;;;;9.78;70.30;102594.34;4866455;29;45572;-67
2022/11/26 07:44:01;;;;;;;;;31.25;28.25;;;;;9.89;69.83;102599.66;4866771;29;45438;-67
2022/11/26 07:46:26;;;;;;;;;21.75;21.25;;;;;9.83;70.19;102589.91;4865988;29;45326;-66
2022/11/26 07:48:54;;;;;;;;;23.00;20.75;;;;;9.76;70.27;102578.34;4863856;29;45341;-67
2022/11/26 07:51:24;;;;;;;;;26.75;23.00;;;;;9.80;69.91;102584.56;4866295;29;45504;-68
2022/11/26 07:53:51;;;;;;;;;21.00;20.75;;;;;9.79;69.91;102589.00;4865719;29;46262;-68
2022/11/26 07:56:17;;;;;;;;;24.25;21.00;;;;;9.81;70.05;102591.69;4866389;29;45320;-68
2022/11/26 07:58:42;;;;;;;;;20.75;20.00;;;;;9.84;70.27;102589.03;4867126;29;45330;-68
2022/11/26 08:01:13;;;;;;;;;21.50;19.75;;;;;9.80;69.95;102587.22;4865978;29;45761;-68
2022/11/26 08:03:40;;;;;;;;;14.75;13.00;;;;;9.82;70.13;102588.09;4864550;29;45701;-68
2022/11/26 08:06:11;;;;;;;;;20.00;18.50;;;;;9.82;70.05;102577.44;4864480;29;45420;-68
2022/11/26 08:08:37;;;;;;;;;21.75;20.25;;;;;9.68;69.91;102569.44;4863478;29;45466;-67
2022/11/26 08:11:04;;;;;;;;;22.75;19.25;;;;;9.75;69.91;102597.00;4849226;29;45767;-69
2022/11/26 08:13:30;;;;;;;;;23.25;20.50;;;;;9.71;70.04;102603.25;4863071;29;46346;-68
2022/11/26 08:15:55;;;;;;;;;23.75;22.50;;;;;9.57;70.15;102595.19;4849443;29;45994;-68
2022/11/26 08:18:20;;;;;;;;;20.75;20.50;;;;;9.63;70.19;102606.75;4866294;29;45548;-68
2022/11/26 08:20:56;;;;;;;;;23.25;18.00;;;;;9.64;69.89;102619.22;4864161;29;45583;-69
2022/11/26 08:23:23;;;;;;;;;19.25;17.25;;;;;9.56;70.16;102604.97;4865212;29;46184;-69
2022/11/26 08:25:49;;;;;;;;;21.00;21.00;;;;;9.63;70.28;102620.09;4866237;29;45277;-69
2022/11/26 08:28:14;;;;;;;;;22.50;17.00;;;;;9.61;70.23;102615.66;4866503;29;45347;-69
2022/11/26 08:30:39;;;;;;;;;21.75;18.25;;;;;9.63;69.91;102622.75;4862753;29;48030;-69
2022/11/26 08:33:04;;;;;;;;;25.75;22.00;;;;;9.54;70.09;102614.75;4863253;29;45994;-69
2022/11/26 08:35:30;;;;;;;;;24.75;21.75;;;;;9.60;70.52;102622.75;4867773;29;45380;-69
2022/11/26 08:37:55;;;;;;;;;28.75;24.50;;;;;9.62;70.03;102623.66;4865563;29;49553;-69
2022/11/26 08:40:20;;;;;;;;;25.25;23.75;;;;;9.60;70.08;102620.09;4863695;29;45393;-67
2022/11/26 08:42:46;;;;;;;;;26.50;21.00;;;;;9.58;70.82;102610.31;4852962;29;46422;-67
2022/11/26 08:45:11;;;;;;;;;29.00;22.00;;;;;9.62;70.56;102612.09;4865697;29;45330;-68
2022/11/26 08:47:36;;;;;;;;;20.75;19.75;;;;;9.60;70.35;102613.88;4864462;29;45536;-68
2022/11/26 08:50:03;;;;;;;;;25.50;21.50;;;;;9.57;70.24;102609.44;4866050;29;45418;-67
2022/11/26 08:52:28;;;;;;;;;23.75;20.00;;;;;9.54;70.27;102608.50;4864088;29;46447;-69
2022/11/26 08:54:54;;;;;;;;;25.50;23.25;;;;;9.48;70.36;102608.53;4864456;29;54547;-68
2022/11/26 08:57:19;;;;;;;;;30.75;26.25;;;;;9.49;71.02;102627.19;4864402;29;45616;-69
2022/11/26 08:59:45;;;;;;;;;22.75;21.25;;;;;9.39;70.62;102610.28;4865563;29;45329;-69
2022/11/26 09:02:10;;;;;;;;;24.50;22.50;;;;;9.45;70.88;102623.63;4865065;29;47397;-69
2022/11/26 09:04:36;;;;;;;;;23.00;20.75;;;;;9.42;70.81;102614.72;4864800;29;45257;-69
2022/11/26 09:07:01;;;;;;;;;24.50;24.50;;;;;9.40;71.15;102622.72;4864422;29;45442;-69
2022/11/26 09:09:26;;;;;;;;;25.50;23.50;;;;;9.37;71.58;102621.81;4865237;29;45423;-70
2022/11/26 09:11:57;;;;;;;;;24.00;21.25;;;;;9.45;71.40;102628.06;4865305;29;45301;-69
2022/11/26 09:14:24;;;;;;;;;27.00;23.25;;;;;9.46;71.63;102630.72;4865469;29;45438;-70
2022/11/26 09:16:50;;;;;;;;;25.75;22.25;;;;;9.46;71.20;102632.50;4865768;29;45393;-70
2022/11/26 09:19:17;;;;;;;;;21.75;20.25;;;;;9.44;71.50;102629.84;4865599;29;45338;-70
2022/11/26 09:21:43;;;;;;;;;24.25;21.25;;;;;9.45;72.08;102622.72;4864184;29;46081;-69
2022/11/26 09:24:09;;;;;;;;;34.00;29.75;;;;;9.52;71.93;102628.97;4864122;29;45423;-69
2022/11/26 09:26:34;;;;;;;;;30.00;24.00;;;;;9.50;71.95;102628.97;4861451;29;45487;-66
2022/11/26 09:29:00;;;;;;;;;28.75;25.00;;;;;9.48;71.66;102628.06;4848128;29;45668;-66
2022/11/26 09:31:26;;;;;;;;;24.50;23.00;;;;;9.40;71.78;102600.50;4864105;29;47295;-66
2022/11/26 09:33:54;;;;;;;;;29.00;22.75;;;;;9.50;72.28;102612.09;4865076;29;45932;-67
2022/11/26 09:36:20;;;;;;;;;30.50;27.00;;;;;9.48;72.19;102606.75;4865251;29;45361;-68
2022/11/26 09:38:45;;;;;;;;;31.50;27.75;;;;;9.46;71.92;102612.06;4864859;29;45225;-68
2022/11/26 09:41:35;;;;;;;;;30.25;28.50;;;;;9.50;72.13;102628.97;4865285;29;45586;-68
2022/11/26 09:44:18;;;;;;;;;28.50;23.00;;;;;9.49;72.18;102627.19;4865085;29;45403;-66
2022/11/26 09:47:17;;;;;;;;;30.25;25.25;;;;;9.43;72.72;102606.72;4861710;29;45504;-66
2022/11/26 09:49:48;;;;;;;;;32.00;30.25;;;;;9.53;72.53;102620.97;4844912;29;45598;-66
2022/11/26 09:52:18;;;;;;;;;26.50;21.75;;;;;9.51;72.52;102622.75;4864793;29;45338;-66
2022/11/26 09:54:45;;;;;;;;;25.25;22.25;;;;;9.52;72.96;102615.63;4861424;29;45569;-67
2022/11/26 09:57:25;;;;;;;;;22.00;19.00;;;;;9.55;73.12;102615.63;4863857;29;45687;-68
2022/11/26 09:59:52;;;;;;;;;27.00;25.50;;;;;9.55;73.41;102604.97;4864822;29;45504;-67
2022/11/26 10:02:18;;;;;;;;;28.50;23.25;;;;;9.57;73.14;102606.78;4863065;29;46392;-66
2022/11/26 10:04:44;;;;;;;;;22.75;15.75;;;;;9.58;73.20;102610.31;4848142;29;46352;-67
2022/11/26 10:07:45;;;;;;;;;23.00;20.00;;;;;9.56;72.80;102610.31;4865537;29;45551;-66
2022/11/26 10:10:36;;;;;;;;;20.00;18.75;;;;;9.56;73.16;102604.97;4848036;29;45408;-67
2022/11/26 10:13:21;;;;;;;;;27.50;24.25;;;;;9.58;73.74;102613.00;4864339;29;47121;-66
2022/11/26 10:15:58;;;;;;;;;21.75;20.00;;;;;9.64;73.30;102621.00;4863693;29;46159;-66
2022/11/26 10:18:32;;;;;;;;;33.00;26.25;;;;;9.63;73.60;102614.75;4847905;29;45438;-68
2022/11/26 10:21:13;;;;;;;;;26.75;24.00;;;;;9.66;73.29;102608.56;4864567;29;45515;-66
2022/11/26 10:23:45;;;;;;;;;24.25;21.50;;;;;9.63;73.60;102600.56;4862489;29;46339;-70
2022/11/26 10:26:18;;;;;;;;;30.25;27.25;;;;;9.60;73.82;102597.88;4862666;29;45817;-66
2022/11/26 10:28:45;;;;;;;;;23.25;22.00;;;;;9.69;73.62;102613.91;4864460;29;45391;-70
2022/11/26 10:31:19;;;;;;;;;36.50;31.00;;;;;9.66;74.24;102603.22;4847741;29;45553;-68
2022/11/26 10:34:00;;;;;;;;;16.00;14.50;;;;;9.67;73.93;102588.97;4863724;29;45615;-68
2022/11/26 10:36:38;;;;;;;;;26.00;21.25;;;;;9.67;74.02;102580.09;4863063;29;45462;-69
2022/11/26 10:39:06;;;;;;;;;29.75;24.75;;;;;9.74;74.38;102584.53;4864177;29;45393;-65
2022/11/26 10:41:34;;;;;;;;;27.50;22.75;;;;;9.80;74.14;102584.56;4860155;29;46267;-69
2022/11/26 10:44:32;;;;;;;;;23.50;21.00;;;;;9.81;73.88;102573.00;4863493;29;46545;-68
2022/11/26 10:46:59;;;;;;;;;24.75;22.75;;;;;9.81;74.13;102576.56;4862079;29;45448;-68
2022/11/26 10:49:27;;;;;;;;;33.00;24.50;;;;;9.84;74.17;102586.34;4862532;29;45386;-68
2022/11/26 10:51:57;;;;;;;;;30.75;26.25;;;;;9.89;73.78;102592.56;4864031;29;45365;-68
2022/11/26 10:54:32;;;;;;;;;38.50;28.50;;;;;9.92;74.20;102579.25;4863756;29;45620;-68
2022/11/26 10:57:07;;;;;;;;;34.50;30.25;;;;;9.95;74.16;102578.34;4862910;29;45433;-68
2022/11/26 10:59:39;;;;;;;;;30.25;27.75;;;;;9.98;73.76;102586.34;4864493;29;45513;-68
2022/11/26 11:02:31;;;;;;;;;31.50;27.50;;;;;9.90;74.02;102581.00;4851814;29;45389;-68
2022/11/26 11:05:00;;;;;;;;;29.75;28.50;;;;;9.94;74.40;102598.78;4864151;29;46057;-68
2022/11/26 11:07:38;;;;;;;;;31.00;25.50;;;;;9.95;74.30;102599.69;4846702;29;45475;-68
2022/11/26 11:10:12;;;;;;;;;30.50;27.50;;;;;9.90;74.82;102580.13;4860520;29;45347;-67
2022/11/26 11:12:39;;;;;;;;;26.50;24.50;;;;;9.90;73.98;102578.31;4863688;29;45358;-70
2022/11/26 11:15:24;;;;;;;;;28.25;24.75;;;;;9.97;74.56;102592.56;4851129;29;46237;-67
2022/11/26 11:18:13;;;;;;;;;28.25;25.75;;;;;9.98;74.52;102586.34;4836845;29;45386;-68
2022/11/26 11:20:41;;;;;;;;;29.75;26.75;;;;;10.01;74.27;102581.88;4864045;29;45478;-66